Terminal Aerodrome Forecast
Issued by NWS Charleston, WV

Home | Current Version | Previous Version | Text Only | Print | Product List | Glossary On
Versions: 1 2 3 4 5 6 7 8 9 10 11 12 13 14 15 16 17 18 19 20 21
000
FTUS41 KRLX 081124
TAFEKN
TAF
KEKN 081124Z 0812/0912 15004KT P6SM OVC150
     FM081600 17007KT 4SM -SHRA OVC040
     FM081700 18008KT 4SM -SHRA OVC026
     FM081900 20006KT 3SM -SHRA OVC014
     FM082100 22005KT 2SM -SHRA OVC007
     FM090000 26005KT 3SM -SHRASN OVC007
     FM090200 26004KT 1SM -SHSN OVC007
     FM090600 26004KT 1SM -SHSN OVC010=

USA.gov is the U.S. government's official web portal to all federal, state and local government web resources and services.